sensor_id;sensor_type;location;lat;lon;timestamp;pressure;altitude;pressure_sealevel;temperature;humidity
47738;BME280;33502;47.182;27.506;2023-07-13T00:00:13;99916.06;;;20.11;100.00
47738;BME280;33502;47.182;27.506;2023-07-13T00:02:41;99915.81;;;20.14;100.00
47738;BME280;33502;47.182;27.506;2023-07-13T00:05:07;99917.78;;;20.12;100.00
47738;BME280;33502;47.182;27.506;2023-07-13T00:07:33;99923.31;;;20.11;100.00
47738;BME280;33502;47.182;27.506;2023-07-13T00:09:59;99908.44;;;20.07;100.00
47738;BME280;33502;47.182;27.506;2023-07-13T00:12:26;99902.34;;;20.05;100.00
47738;BME280;33502;47.182;27.506;2023-07-13T00:14:53;99908.81;;;20.02;100.00
47738;BME280;33502;47.182;27.506;2023-07-13T00:17:18;99902.03;;;19.98;100.00
47738;BME280;33502;47.182;27.506;2023-07-13T00:19:44;99890.56;;;19.96;100.00
47738;BME280;33502;47.182;27.506;2023-07-13T00:22:09;99900.75;;;19.92;100.00
47738;BME280;33502;47.182;27.506;2023-07-13T00:24:35;99902.28;;;19.85;100.00
47738;BME280;33502;47.182;27.506;2023-07-13T00:27:01;99901.84;;;19.80;100.00
47738;BME280;33502;47.182;27.506;2023-07-13T00:29:27;99900.72;;;19.83;100.00
47738;BME280;33502;47.182;27.506;2023-07-13T00:31:52;99902.81;;;19.79;100.00
47738;BME280;33502;47.182;27.506;2023-07-13T00:34:18;99904.91;;;19.75;100.00
47738;BME280;33502;47.182;27.506;2023-07-13T00:36:43;99913.44;;;19.81;100.00
47738;BME280;33502;47.182;27.506;2023-07-13T00:39:09;99914.13;;;19.83;100.00
47738;BME280;33502;47.182;27.506;2023-07-13T00:41:35;99900.13;;;19.79;100.00
47738;BME280;33502;47.182;27.506;2023-07-13T00:44:03;99899.69;;;19.74;100.00
47738;BME280;33502;47.182;27.506;2023-07-13T00:46:30;99901.06;;;19.68;100.00
47738;BME280;33502;47.182;27.506;2023-07-13T00:48:57;99895.09;;;19.65;100.00
47738;BME280;33502;47.182;27.506;2023-07-13T00:51:26;99896.47;;;19.59;100.00
47738;BME280;33502;47.182;27.506;2023-07-13T00:53:53;99891.50;;;19.54;100.00
47738;BME280;33502;47.182;27.506;2023-07-13T00:56:19;99891.78;;;19.51;100.00
47738;BME280;33502;47.182;27.506;2023-07-13T00:58:45;99899.56;;;19.54;100.00
47738;BME280;33502;47.182;27.506;2023-07-13T01:01:11;99897.44;;;19.58;100.00
47738;BME280;33502;47.182;27.506;2023-07-13T01:03:38;99892.78;;;19.60;100.00
47738;BME280;33502;47.182;27.506;2023-07-13T01:06:05;99896.94;;;19.64;100.00
47738;BME280;33502;47.182;27.506;2023-07-13T01:08:32;99892.41;;;19.65;100.00
47738;BME280;33502;47.182;27.506;2023-07-13T01:10:59;99889.13;;;19.61;100.00
47738;BME280;33502;47.182;27.506;2023-07-13T01:13:25;99891.94;;;19.60;100.00
47738;BME280;33502;47.182;27.506;2023-07-13T01:15:51;99889.41;;;19.58;100.00
47738;BME280;33502;47.182;27.506;2023-07-13T01:18:20;99882.94;;;19.61;100.00
47738;BME280;33502;47.182;27.506;2023-07-13T01:20:50;99894.50;;;19.61;100.00
47738;BME280;33502;47.182;27.506;2023-07-13T01:23:15;99895.22;;;19.63;100.00
47738;BME280;33502;47.182;27.506;2023-07-13T01:25:41;99886.03;;;19.66;100.00
47738;BME280;33502;47.182;27.506;2023-07-13T01:28:07;99886.63;;;19.69;100.00
47738;BME280;33502;47.182;27.506;2023-07-13T01:30:37;99895.69;;;19.68;100.00
47738;BME280;33502;47.182;27.506;2023-07-13T01:33:06;99893.38;;;19.64;100.00
47738;BME280;33502;47.182;27.506;2023-07-13T01:35:33;99886.72;;;19.58;100.00
47738;BME280;33502;47.182;27.506;2023-07-13T01:37:58;99889.94;;;19.52;100.00
47738;BME280;33502;47.182;27.506;2023-07-13T01:40:25;99897.53;;;19.47;100.00
47738;BME280;33502;47.182;27.506;2023-07-13T01:42:51;99892.81;;;19.39;100.00
47738;BME280;33502;47.182;27.506;2023-07-13T01:45:19;99895.22;;;19.32;100.00
47738;BME280;33502;47.182;27.506;2023-07-13T01:47:46;99891.22;;;19.27;100.00
47738;BME280;33502;47.182;27.506;2023-07-13T01:50:12;99904.88;;;19.24;100.00
47738;BME280;33502;47.182;27.506;2023-07-13T01:52:37;99902.88;;;19.16;100.00
47738;BME280;33502;47.182;27.506;2023-07-13T01:55:03;99894.50;;;19.09;100.00
47738;BME280;33502;47.182;27.506;2023-07-13T01:57:28;99901.84;;;19.07;100.00
47738;BME280;33502;47.182;27.506;2023-07-13T01:59:54;99905.00;;;19.01;100.00
47738;BME280;33502;47.182;27.506;2023-07-13T02:02:20;99901.75;;;18.97;100.00
47738;BME280;33502;47.182;27.506;2023-07-13T02:04:46;99896.91;;;18.91;100.00
47738;BME280;33502;47.182;27.506;2023-07-13T02:07:11;99904.38;;;18.88;100.00
47738;BME280;33502;47.182;27.506;2023-07-13T02:09:37;99907.56;;;18.82;100.00
47738;BME280;33502;47.182;27.506;2023-07-13T02:12:02;99903.78;;;18.73;100.00
47738;BME280;33502;47.182;27.506;2023-07-13T02:14:32;99911.25;;;18.69;100.00
47738;BME280;33502;47.182;27.506;2023-07-13T02:16:58;99902.72;;;18.64;100.00
47738;BME280;33502;47.182;27.506;2023-07-13T02:19:23;99906.41;;;18.63;100.00
47738;BME280;33502;47.182;27.506;2023-07-13T02:21:49;99910.16;;;18.61;100.00
47738;BME280;33502;47.182;27.506;2023-07-13T02:24:16;99907.59;;;18.59;100.00
47738;BME280;33502;47.182;27.506;2023-07-13T02:26:43;99910.56;;;18.56;100.00
47738;BME280;33502;47.182;27.506;2023-07-13T02:29:09;99900.94;;;18.53;100.00
47738;BME280;33502;47.182;27.506;2023-07-13T02:31:35;99913.88;;;18.48;100.00
47738;BME280;33502;47.182;27.506;2023-07-13T02:34:01;99902.53;;;18.45;100.00
47738;BME280;33502;47.182;27.506;2023-07-13T02:36:27;99901.81;;;18.43;100.00
47738;BME280;33502;47.182;27.506;2023-07-13T02:38:52;99899.25;;;18.41;100.00
47738;BME280;33502;47.182;27.506;2023-07-13T02:41:18;99901.81;;;18.43;100.00
47738;BME280;33502;47.182;27.506;2023-07-13T02:43:45;99900.97;;;18.42;100.00
47738;BME280;33502;47.182;27.506;2023-07-13T02:46:10;99895.75;;;18.41;100.00
47738;BME280;33502;47.182;27.506;2023-07-13T02:48:37;99893.91;;;18.41;100.00
47738;BME280;33502;47.182;27.506;2023-07-13T02:51:02;99897.91;;;18.47;100.00
47738;BME280;33502;47.182;27.506;2023-07-13T02:53:28;99904.72;;;18.51;100.00
47738;BME280;33502;47.182;27.506;2023-07-13T02:55:54;99898.00;;;18.56;100.00
47738;BME280;33502;47.182;27.506;2023-07-13T02:58:20;99898.47;;;18.62;100.00
47738;BME280;33502;47.182;27.506;2023-07-13T03:00:46;99903.91;;;18.71;100.00
47738;BME280;33502;47.182;27.506;2023-07-13T03:03:16;99902.53;;;18.88;100.00
47738;BME280;33502;47.182;27.506;2023-07-13T03:05:42;99911.44;;;19.10;100.00
47738;BME280;33502;47.182;27.506;2023-07-13T03:08:09;99919.63;;;19.29;100.00
47738;BME280;33502;47.182;27.506;2023-07-13T03:10:35;99920.13;;;19.44;100.00
47738;BME280;33502;47.182;27.506;2023-07-13T03:13:02;99920.91;;;19.56;100.00
47738;BME280;33502;47.182;27.506;2023-07-13T03:15:28;99926.47;;;19.64;100.00
47738;BME280;33502;47.182;27.506;2023-07-13T03:17:55;99923.16;;;19.72;100.00
47738;BME280;33502;47.182;27.506;2023-07-13T03:20:21;99927.69;;;19.81;100.00
47738;BME280;33502;47.182;27.506;2023-07-13T03:22:46;99928.47;;;19.93;100.00
47738;BME280;33502;47.182;27.506;2023-07-13T03:25:13;99919.75;;;20.01;100.00
47738;BME280;33502;47.182;27.506;2023-07-13T03:27:39;99922.97;;;20.04;100.00
47738;BME280;33502;47.182;27.506;2023-07-13T03:30:07;99923.56;;;20.08;100.00
47738;BME280;33502;47.182;27.506;2023-07-13T03:32:34;99917.94;;;20.11;100.00
47738;BME280;33502;47.182;27.506;2023-07-13T03:34:59;99928.41;;;20.14;100.00
47738;BME280;33502;47.182;27.506;2023-07-13T03:37:25;99931.53;;;20.19;100.00
47738;BME280;33502;47.182;27.506;2023-07-13T03:39:51;99932.41;;;20.20;100.00
47738;BME280;33502;47.182;27.506;2023-07-13T03:42:17;99934.91;;;20.21;100.00
47738;BME280;33502;47.182;27.506;2023-07-13T03:44:43;99930.97;;;20.25;100.00
47738;BME280;33502;47.182;27.506;2023-07-13T03:47:15;99935.81;;;20.31;100.00
47738;BME280;33502;47.182;27.506;2023-07-13T03:49:41;99939.78;;;20.37;100.00
47738;BME280;33502;47.182;27.506;2023-07-13T03:52:07;99935.69;;;20.43;100.00
47738;BME280;33502;47.182;27.506;2023-07-13T03:54:32;99937.97;;;20.47;100.00
47738;BME280;33502;47.182;27.506;2023-07-13T03:57:00;99935.72;;;20.52;100.00
47738;BME280;33502;47.182;27.506;2023-07-13T03:59:27;99946.88;;;20.58;100.00
47738;BME280;33502;47.182;27.506;2023-07-13T04:01:52;99942.81;;;20.63;100.00
47738;BME280;33502;47.182;27.506;2023-07-13T04:04:19;99949.66;;;20.67;100.00
47738;BME280;33502;47.182;27.506;2023-07-13T04:06:44;99945.38;;;20.75;100.00
47738;BME280;33502;47.182;27.506;2023-07-13T04:09:11;99943.97;;;20.80;100.00
47738;BME280;33502;47.182;27.506;2023-07-13T04:11:36;99951.22;;;20.89;100.00
47738;BME280;33502;47.182;27.506;2023-07-13T04:14:02;99953.31;;;20.96;100.00
47738;BME280;33502;47.182;27.506;2023-07-13T04:16:28;99956.31;;;21.02;100.00
47738;BME280;33502;47.182;27.506;2023-07-13T04:18:54;99957.28;;;21.11;100.00
47738;BME280;33502;47.182;27.506;2023-07-13T04:21:22;99964.25;;;21.23;100.00
47738;BME280;33502;47.182;27.506;2023-07-13T04:23:48;99967.91;;;21.32;100.00
47738;BME280;33502;47.182;27.506;2023-07-13T04:26:13;99959.97;;;21.40;100.00
47738;BME280;33502;47.182;27.506;2023-07-13T04:28:39;99967.06;;;21.51;100.00
47738;BME280;33502;47.182;27.506;2023-07-13T04:31:04;99970.72;;;21.60;100.00
47738;BME280;33502;47.182;27.506;2023-07-13T04:33:30;99984.03;;;21.71;100.00
47738;BME280;33502;47.182;27.506;2023-07-13T04:35:56;99985.41;;;21.85;100.00
47738;BME280;33502;47.182;27.506;2023-07-13T04:38:23;99989.59;;;21.97;100.00
47738;BME280;33502;47.182;27.506;2023-07-13T04:40:50;99989.38;;;22.18;100.00
47738;BME280;33502;47.182;27.506;2023-07-13T04:43:16;99997.72;;;22.35;100.00
47738;BME280;33502;47.182;27.506;2023-07-13T04:45:41;100003.88;;;22.55;100.00
47738;BME280;33502;47.182;27.506;2023-07-13T04:48:07;100010.47;;;22.70;100.00
47738;BME280;33502;47.182;27.506;2023-07-13T04:50:33;100005.84;;;22.98;100.00
47738;BME280;33502;47.182;27.506;2023-07-13T04:53:00;100010.44;;;23.16;100.00
47738;BME280;33502;47.182;27.506;2023-07-13T04:55:26;100016.47;;;23.28;100.00
47738;BME280;33502;47.182;27.506;2023-07-13T04:57:56;100020.63;;;23.40;100.00
47738;BME280;33502;47.182;27.506;2023-07-13T05:00:22;100018.34;;;23.53;100.00
47738;BME280;33502;47.182;27.506;2023-07-13T05:02:47;100018.00;;;23.74;100.00
47738;BME280;33502;47.182;27.506;2023-07-13T05:05:13;100020.47;;;24.12;100.00
47738;BME280;33502;47.182;27.506;2023-07-13T05:07:38;100027.41;;;24.91;100.00
47738;BME280;33502;47.182;27.506;2023-07-13T05:10:04;100021.38;;;25.96;100.00
47738;BME280;33502;47.182;27.506;2023-07-13T05:12:30;100035.44;;;27.18;100.00
47738;BME280;33502;47.182;27.506;2023-07-13T05:14:56;100032.81;;;27.94;100.00
47738;BME280;33502;47.182;27.506;2023-07-13T05:17:21;100036.59;;;28.53;100.00
47738;BME280;33502;47.182;27.506;2023-07-13T05:19:47;100028.56;;;28.81;100.00
47738;BME280;33502;47.182;27.506;2023-07-13T05:22:12;100033.59;;;28.99;98.14
47738;BME280;33502;47.182;27.506;2023-07-13T05:24:38;100030.41;;;29.32;96.20
47738;BME280;33502;47.182;27.506;2023-07-13T05:27:04;100029.63;;;29.01;96.38
47738;BME280;33502;47.182;27.506;2023-07-13T05:29:29;100026.56;;;29.26;94.37
47738;BME280;33502;47.182;27.506;2023-07-13T05:31:55;100023.78;;;29.41;92.06
47738;BME280;33502;47.182;27.506;2023-07-13T05:34:21;100029.03;;;29.06;95.79
47738;BME280;33502;47.182;27.506;2023-07-13T05:36:46;100023.78;;;29.41;95.56
47738;BME280;33502;47.182;27.506;2023-07-13T05:39:12;100024.19;;;29.66;91.85
47738;BME280;33502;47.182;27.506;2023-07-13T05:41:37;100023.78;;;29.91;90.24
47738;BME280;33502;47.182;27.506;2023-07-13T05:44:03;100018.06;;;30.20;88.71
47738;BME280;33502;47.182;27.506;2023-07-13T05:46:29;100017.91;;;30.63;86.09
47738;BME280;33502;47.182;27.506;2023-07-13T05:48:56;100019.53;;;31.06;82.02
47738;BME280;33502;47.182;27.506;2023-07-13T05:51:21;100012.59;;;31.03;80.60
47738;BME280;33502;47.182;27.506;2023-07-13T05:53:47;100019.75;;;31.18;82.04
47738;BME280;33502;47.182;27.506;2023-07-13T05:56:12;100013.66;;;31.22;80.01
47738;BME280;33502;47.182;27.506;2023-07-13T05:58:38;100016.00;;;31.46;79.74
47738;BME280;33502;47.182;27.506;2023-07-13T06:01:05;100022.53;;;31.91;74.89
47738;BME280;33502;47.182;27.506;2023-07-13T06:03:31;100018.50;;;32.21;73.47
47738;BME280;33502;47.182;27.506;2023-07-13T06:05:57;100017.31;;;32.55;73.99
47738;BME280;33502;47.182;27.506;2023-07-13T06:08:22;100012.59;;;33.21;70.96
47738;BME280;33502;47.182;27.506;2023-07-13T06:10:48;100016.59;;;33.50;67.39
47738;BME280;33502;47.182;27.506;2023-07-13T06:13:13;100024.34;;;33.28;66.14
47738;BME280;33502;47.182;27.506;2023-07-13T06:15:39;100031.09;;;32.93;68.37
47738;BME280;33502;47.182;27.506;2023-07-13T06:18:04;100030.06;;;33.26;68.56
47738;BME280;33502;47.182;27.506;2023-07-13T06:20:30;100031.09;;;33.57;65.12
47738;BME280;33502;47.182;27.506;2023-07-13T06:22:58;100033.97;;;33.94;61.67
47738;BME280;33502;47.182;27.506;2023-07-13T06:25:24;100026.22;;;34.28;59.81
47738;BME280;33502;47.182;27.506;2023-07-13T06:27:49;100033.19;;;34.67;59.07
47738;BME280;33502;47.182;27.506;2023-07-13T06:30:15;100035.31;;;34.65;57.20
47738;BME280;33502;47.182;27.506;2023-07-13T06:32:41;100036.09;;;34.73;57.03
47738;BME280;33502;47.182;27.506;2023-07-13T06:35:06;100048.22;;;34.28;56.55
47738;BME280;33502;47.182;27.506;2023-07-13T06:37:32;100054.25;;;34.37;56.14
47738;BME280;33502;47.182;27.506;2023-07-13T06:39:58;100051.06;;;34.14;57.56
47738;BME280;33502;47.182;27.506;2023-07-13T06:42:24;100046.34;;;34.28;57.38
47738;BME280;33502;47.182;27.506;2023-07-13T06:44:49;100048.44;;;34.63;55.79
47738;BME280;33502;47.182;27.506;2023-07-13T06:47:15;100037.91;;;35.27;55.54
47738;BME280;33502;47.182;27.506;2023-07-13T06:49:40;100046.69;;;35.18;54.25
47738;BME280;33502;47.182;27.506;2023-07-13T06:52:06;100040.44;;;34.62;54.49
47738;BME280;33502;47.182;27.506;2023-07-13T06:54:32;100043.63;;;34.96;59.00
47738;BME280;33502;47.182;27.506;2023-07-13T06:56:57;100038.63;;;35.46;54.01
47738;BME280;33502;47.182;27.506;2023-07-13T06:59:23;100036.94;;;35.22;53.41
47738;BME280;33502;47.182;27.506;2023-07-13T07:01:48;100041.38;;;35.35;53.07
47738;BME280;33502;47.182;27.506;2023-07-13T07:04:14;100043.94;;;35.18;54.55
47738;BME280;33502;47.182;27.506;2023-07-13T07:06:39;100032.06;;;35.47;56.70
47738;BME280;33502;47.182;27.506;2023-07-13T07:09:05;100023.50;;;35.79;51.16
47738;BME280;33502;47.182;27.506;2023-07-13T07:11:30;100022.78;;;35.96;51.22
47738;BME280;33502;47.182;27.506;2023-07-13T07:13:56;100022.25;;;35.52;51.16
47738;BME280;33502;47.182;27.506;2023-07-13T07:16:21;100013.03;;;35.46;52.10
47738;BME280;33502;47.182;27.506;2023-07-13T07:18:47;100011.66;;;36.02;51.47
47738;BME280;33502;47.182;27.506;2023-07-13T07:21:13;100012.84;;;36.06;48.97
47738;BME280;33502;47.182;27.506;2023-07-13T07:23:39;100010.06;;;36.06;49.37
47738;BME280;33502;47.182;27.506;2023-07-13T07:26:05;100013.09;;;36.57;51.62
47738;BME280;33502;47.182;27.506;2023-07-13T07:28:34;100005.84;;;36.80;47.43
47738;BME280;33502;47.182;27.506;2023-07-13T07:30:59;100014.84;;;36.23;48.21
47738;BME280;33502;47.182;27.506;2023-07-13T07:33:25;100018.78;;;36.15;48.59
47738;BME280;33502;47.182;27.506;2023-07-13T07:35:50;100014.88;;;35.87;51.98
47738;BME280;33502;47.182;27.506;2023-07-13T07:38:16;100017.16;;;35.79;48.00
47738;BME280;33502;47.182;27.506;2023-07-13T07:40:42;100019.75;;;36.44;46.11
47738;BME280;33502;47.182;27.506;2023-07-13T07:43:08;100026.69;;;37.16;47.34
47738;BME280;33502;47.182;27.506;2023-07-13T07:45:33;100029.16;;;37.47;44.96
47738;BME280;33502;47.182;27.506;2023-07-13T07:47:59;100032.44;;;37.77;43.62
47738;BME280;33502;47.182;27.506;2023-07-13T07:50:25;100037.78;;;37.50;45.03
47738;BME280;33502;47.182;27.506;2023-07-13T07:52:51;100038.59;;;37.05;45.67
47738;BME280;33502;47.182;27.506;2023-07-13T07:55:17;100034.00;;;37.56;46.29
47738;BME280;33502;47.182;27.506;2023-07-13T07:57:43;100035.28;;;38.16;43.02
47738;BME280;33502;47.182;27.506;2023-07-13T08:00:08;100036.97;;;38.39;42.44
47738;BME280;33502;47.182;27.506;2023-07-13T08:02:39;100046.53;;;37.76;43.03
47738;BME280;33502;47.182;27.506;2023-07-13T08:05:07;100046.66;;;37.52;46.10
47738;BME280;33502;47.182;27.506;2023-07-13T08:07:32;100046.09;;;38.18;43.00
47738;BME280;33502;47.182;27.506;2023-07-13T08:09:58;100046.25;;;38.11;47.24
47738;BME280;33502;47.182;27.506;2023-07-13T08:12:23;100044.91;;;37.97;44.10
47738;BME280;33502;47.182;27.506;2023-07-13T08:14:49;100044.16;;;37.85;43.01
47738;BME280;33502;47.182;27.506;2023-07-13T08:17:19;100040.03;;;37.87;43.91
47738;BME280;33502;47.182;27.506;2023-07-13T08:19:45;100046.53;;;37.76;43.54
47738;BME280;33502;47.182;27.506;2023-07-13T08:22:11;100047.25;;;38.22;42.10
47738;BME280;33502;47.182;27.506;2023-07-13T08:24:37;100055.75;;;37.19;44.28
47738;BME280;33502;47.182;27.506;2023-07-13T08:27:02;100051.31;;;37.35;44.10
47738;BME280;33502;47.182;27.506;2023-07-13T08:29:28;100046.56;;;37.30;46.13
47738;BME280;33502;47.182;27.506;2023-07-13T08:31:53;100044.91;;;37.46;44.49
47738;BME280;33502;47.182;27.506;2023-07-13T08:34:19;100050.28;;;37.70;44.69
47738;BME280;33502;47.182;27.506;2023-07-13T08:36:46;100049.75;;;37.10;45.12
47738;BME280;33502;47.182;27.506;2023-07-13T08:39:11;100051.09;;;37.08;45.01
47738;BME280;33502;47.182;27.506;2023-07-13T08:41:37;100047.59;;;38.09;42.95
47738;BME280;33502;47.182;27.506;2023-07-13T08:44:03;100059.91;;;37.67;42.79
47738;BME280;33502;47.182;27.506;2023-07-13T08:49:08;100035.88;;;36.64;47.83
47738;BME280;33502;47.182;27.506;2023-07-13T08:51:42;100010.47;;;35.98;48.39
47738;BME280;33502;47.182;27.506;2023-07-13T08:54:23;100016.19;;;37.13;46.46
47738;BME280;33502;47.182;27.506;2023-07-13T08:56:51;100011.22;;;38.17;42.35
47738;BME280;33502;47.182;27.506;2023-07-13T08:59:19;100012.25;;;38.11;43.00
47738;BME280;33502;47.182;27.506;2023-07-13T09:01:49;100014.94;;;37.21;45.22
47738;BME280;33502;47.182;27.506;2023-07-13T09:04:25;100014.75;;;36.99;44.49
47738;BME280;33502;47.182;27.506;2023-07-13T09:06:55;100010.84;;;37.57;42.94
47738;BME280;33502;47.182;27.506;2023-07-13T09:14:47;100012.63;;;38.03;46.73
47738;BME280;33502;47.182;27.506;2023-07-13T09:17:18;100022.25;;;38.56;43.23
47738;BME280;33502;47.182;27.506;2023-07-13T09:19:46;100014.91;;;38.94;42.37
47738;BME280;33502;47.182;27.506;2023-07-13T09:22:15;100012.59;;;39.40;40.45
47738;BME280;33502;47.182;27.506;2023-07-13T09:24:49;100020.38;;;38.62;42.18
47738;BME280;33502;47.182;27.506;2023-07-13T09:27:23;100009.56;;;37.99;42.27
47738;BME280;33502;47.182;27.506;2023-07-13T09:29:54;100008.13;;;35.60;47.72
47738;BME280;33502;47.182;27.506;2023-07-13T09:32:23;99997.97;;;34.02;51.55
47738;BME280;33502;47.182;27.506;2023-07-13T09:34:51;99991.44;;;34.89;50.23
47738;BME280;33502;47.182;27.506;2023-07-13T09:37:18;99996.41;;;35.41;49.86
47738;BME280;33502;47.182;27.506;2023-07-13T09:39:44;99993.44;;;35.66;47.46
47738;BME280;33502;47.182;27.506;2023-07-13T09:44:49;99986.38;;;35.82;54.40
47738;BME280;33502;47.182;27.506;2023-07-13T09:47:22;99986.47;;;35.63;52.47
47738;BME280;33502;47.182;27.506;2023-07-13T09:49:53;99990.19;;;35.57;52.62
47738;BME280;33502;47.182;27.506;2023-07-13T09:52:19;99985.03;;;35.49;52.85
47738;BME280;33502;47.182;27.506;2023-07-13T09:54:49;99982.06;;;35.86;47.69
47738;BME280;33502;47.182;27.506;2023-07-13T09:57:16;99977.66;;;35.85;48.98
47738;BME280;33502;47.182;27.506;2023-07-13T09:59:49;99981.94;;;35.93;48.85
47738;BME280;33502;47.182;27.506;2023-07-13T10:02:34;99975.81;;;36.14;47.85
47738;BME280;33502;47.182;27.506;2023-07-13T10:05:07;99987.56;;;36.10;48.15
47738;BME280;33502;47.182;27.506;2023-07-13T10:07:39;99987.06;;;36.24;48.29
47738;BME280;33502;47.182;27.506;2023-07-13T10:10:13;99990.69;;;36.25;46.01
47738;BME280;33502;47.182;27.506;2023-07-13T10:12:39;99989.13;;;36.17;46.84
47738;BME280;33502;47.182;27.506;2023-07-13T10:15:07;99994.13;;;36.32;45.85
47738;BME280;33502;47.182;27.506;2023-07-13T10:17:38;100006.03;;;36.73;46.84
47738;BME280;33502;47.182;27.506;2023-07-13T10:20:05;100002.06;;;36.57;46.62
47738;BME280;33502;47.182;27.506;2023-07-13T10:22:47;100010.59;;;36.56;47.65
47738;BME280;33502;47.182;27.506;2023-07-13T10:25:20;100017.53;;;36.18;47.90
47738;BME280;33502;47.182;27.506;2023-07-13T10:27:48;100017.72;;;36.16;46.79
47738;BME280;33502;47.182;27.506;2023-07-13T10:32:45;100006.13;;;36.26;47.14
47738;BME280;33502;47.182;27.506;2023-07-13T10:35:12;100005.22;;;36.49;44.95
47738;BME280;33502;47.182;27.506;2023-07-13T10:37:43;100007.84;;;36.68;44.76
47738;BME280;33502;47.182;27.506;2023-07-13T10:40:14;100010.00;;;36.94;44.36
47738;BME280;33502;47.182;27.506;2023-07-13T10:42:43;100000.41;;;36.56;44.97
47738;BME280;33502;47.182;27.506;2023-07-13T10:45:12;99993.19;;;36.55;44.81
47738;BME280;33502;47.182;27.506;2023-07-13T10:47:38;99980.28;;;36.56;45.49
47738;BME280;33502;47.182;27.506;2023-07-13T10:50:05;99987.28;;;36.35;46.71
47738;BME280;33502;47.182;27.506;2023-07-13T10:52:47;99981.78;;;36.11;47.49
47738;BME280;33502;47.182;27.506;2023-07-13T10:58:40;99986.72;;;36.61;43.99
47738;BME280;33502;47.182;27.506;2023-07-13T11:00:47;99996.91;;;36.61;44.76
47738;BME280;33502;47.182;27.506;2023-07-13T11:03:15;99994.19;;;36.49;43.73
47738;BME280;33502;47.182;27.506;2023-07-13T11:05:41;99975.75;;;36.38;46.43
47738;BME280;33502;47.182;27.506;2023-07-13T11:08:16;99969.63;;;36.48;44.26
47738;BME280;33502;47.182;27.506;2023-07-13T11:10:47;99969.91;;;36.75;46.22
47738;BME280;33502;47.182;27.506;2023-07-13T11:16:14;99974.69;;;36.39;44.14
47738;BME280;33502;47.182;27.506;2023-07-13T11:21:29;99953.38;;;36.63;43.41
47738;BME280;33502;47.182;27.506;2023-07-13T11:24:13;99957.41;;;36.43;44.35
47738;BME280;33502;47.182;27.506;2023-07-13T11:31:40;99929.47;;;36.80;44.68
47738;BME280;33502;47.182;27.506;2023-07-13T11:34:07;99924.19;;;37.25;43.66
47738;BME280;33502;47.182;27.506;2023-07-13T11:36:38;99924.63;;;37.04;42.59
47738;BME280;33502;47.182;27.506;2023-07-13T11:39:14;99911.75;;;37.10;45.80
47738;BME280;33502;47.182;27.506;2023-07-13T11:41:48;99894.97;;;37.63;41.80
47738;BME280;33502;47.182;27.506;2023-07-13T11:44:17;99901.44;;;38.12;40.10
47738;BME280;33502;47.182;27.506;2023-07-13T11:46:46;99912.84;;;38.21;38.13
47738;BME280;33502;47.182;27.506;2023-07-13T11:49:15;99937.00;;;37.53;41.65
47738;BME280;33502;47.182;27.506;2023-07-13T11:51:41;99959.78;;;35.99;41.31
47738;BME280;33502;47.182;27.506;2023-07-13T11:54:15;99972.06;;;34.84;44.60
47738;BME280;33502;47.182;27.506;2023-07-13T11:56:45;99984.19;;;33.84;45.41
47738;BME280;33502;47.182;27.506;2023-07-13T11:59:12;99998.72;;;33.15;49.11
47738;BME280;33502;47.182;27.506;2023-07-13T12:01:42;100011.22;;;32.53;51.39
47738;BME280;33502;47.182;27.506;2023-07-13T12:04:10;100035.38;;;32.04;53.77
47738;BME280;33502;47.182;27.506;2023-07-13T12:06:46;100107.59;;;31.50;56.92
47738;BME280;33502;47.182;27.506;2023-07-13T12:09:13;100148.16;;;28.90;57.19
47738;BME280;33502;47.182;27.506;2023-07-13T12:11:41;100176.59;;;27.20;66.42
47738;BME280;33502;47.182;27.506;2023-07-13T12:14:16;100179.03;;;26.17;78.47
47738;BME280;33502;47.182;27.506;2023-07-13T12:16:42;100170.09;;;25.25;99.53
47738;BME280;33502;47.182;27.506;2023-07-13T12:19:14;100158.38;;;23.86;100.00
47738;BME280;33502;47.182;27.506;2023-07-13T12:21:42;100105.53;;;22.07;100.00
47738;BME280;33502;47.182;27.506;2023-07-13T12:24:16;100097.09;;;20.93;100.00
47738;BME280;33502;47.182;27.506;2023-07-13T12:26:42;100097.13;;;20.31;100.00
47738;BME280;33502;47.182;27.506;2023-07-13T12:29:07;100077.63;;;20.08;100.00
47738;BME280;33502;47.182;27.506;2023-07-13T12:31:34;100058.91;;;19.97;100.00
47738;BME280;33502;47.182;27.506;2023-07-13T12:34:07;100043.69;;;19.86;100.00
47738;BME280;33502;47.182;27.506;2023-07-13T12:36:35;100021.75;;;19.70;100.00
47738;BME280;33502;47.182;27.506;2023-07-13T12:39:44;100017.81;;;19.64;100.00
47738;BME280;33502;47.182;27.506;2023-07-13T12:41:52;99978.59;;;19.62;100.00
47738;BME280;33502;47.182;27.506;2023-07-13T12:44:26;99930.56;;;19.59;100.00
47738;BME280;33502;47.182;27.506;2023-07-13T12:46:56;99893.94;;;19.58;100.00
47738;BME280;33502;47.182;27.506;2023-07-13T12:49:24;99871.91;;;19.64;100.00
47738;BME280;33502;47.182;27.506;2023-07-13T12:51:50;99931.56;;;19.67;100.00
47738;BME280;33502;47.182;27.506;2023-07-13T12:54:17;100051.81;;;19.75;100.00
47738;BME280;33502;47.182;27.506;2023-07-13T12:56:43;100067.88;;;19.54;100.00
47738;BME280;33502;47.182;27.506;2023-07-13T12:59:14;100051.59;;;19.46;100.00
47738;BME280;33502;47.182;27.506;2023-07-13T13:01:41;100080.28;;;19.45;100.00
47738;BME280;33502;47.182;27.506;2023-07-13T13:04:08;100038.41;;;19.43;100.00
47738;BME280;33502;47.182;27.506;2023-07-13T13:06:36;99950.34;;;19.36;100.00